EIN205 EGCC-EIDW
Flight info
| Callsign | EIN205 |
|---|---|
| Flight time | 0h 35m |
| Altitude | 28000 |
| Route | ASMIM L975 WAL L10 PENIL L28 LELDO M145 BAGSO BAGSO3R |
| Aircraft | A321/M-SDE3FGHIRWY/LB1 |
Departure
| Time | 2026-05-04 10:09 |
|---|---|
| Airport | Manchester Airport (EGCC) |
Arrival
| Time | 2026-05-04 10:44 |
|---|---|
| Airport | Dublin Airport (EIDW) |
| Time | Latitude | Longitude | Altitude | Speed | Heading |
|---|---|---|---|---|---|
| 2026-05-04 09:21 | 53.36178 | -2.27771 | 248 ft | 0 kts | 45° |
| 2026-05-04 09:57 | 53.36176 | -2.27775 | 248 ft | 3 kts | 45° |
| 2026-05-04 09:57 | 53.36158 | -2.27809 | 248 ft | 4 kts | 57° |
| 2026-05-04 09:57 | 53.36146 | -2.27848 | 248 ft | 4 kts | 70° |
| 2026-05-04 09:57 | 53.36139 | -2.27891 | 248 ft | 4 kts | 86° |
| 2026-05-04 09:58 | 53.36140 | -2.27935 | 248 ft | 4 kts | 107° |
| 2026-05-04 09:58 | 53.36151 | -2.27971 | 248 ft | 1 kts | 135° |
| 2026-05-04 09:58 | 53.36151 | -2.27972 | 248 ft | 0 kts | 135° |
| 2026-05-04 10:04 | 53.35915 | -2.27846 | 248 ft | 12 kts | 183° |
| 2026-05-04 10:04 | 53.35803 | -2.27865 | 248 ft | 20 kts | 187° |
| 2026-05-04 10:04 | 53.35654 | -2.27892 | 247 ft | 21 kts | 188° |
| 2026-05-04 10:04 | 53.35523 | -2.28084 | 240 ft | 30 kts | 215° |
| 2026-05-04 10:05 | 53.35360 | -2.28169 | 238 ft | 17 kts | 194° |
| 2026-05-04 10:05 | 53.35230 | -2.28310 | 234 ft | 27 kts | 227° |
| 2026-05-04 10:05 | 53.35107 | -2.28558 | 232 ft | 12 kts | 232° |
| 2026-05-04 10:05 | 53.35043 | -2.28691 | 234 ft | 19 kts | 230° |
| 2026-05-04 10:06 | 53.34930 | -2.28893 | 228 ft | 29 kts | 227° |
| 2026-05-04 10:06 | 53.34766 | -2.29187 | 215 ft | 38 kts | 233° |
| 2026-05-04 10:06 | 53.34678 | -2.29324 | 210 ft | 2 kts | 200° |
| 2026-05-04 10:08 | 53.34559 | -2.29170 | 211 ft | 13 kts | 45° |
| 2026-05-04 10:08 | 53.34611 | -2.29076 | 211 ft | 0 kts | 50° |
| 2026-05-04 10:08 | 53.34636 | -2.29026 | 213 ft | 33 kts | 50° |
| 2026-05-04 10:08 | 53.34964 | -2.28346 | 238 ft | 115 kts | 51° |
| 2026-05-04 10:09 | 53.35596 | -2.27039 | 361 ft | 165 kts | 52° |
| 2026-05-04 10:09 | 53.36341 | -2.25438 | 877 ft | 182 kts | 52° |
| 2026-05-04 10:09 | 53.37138 | -2.23711 | 1530 ft | 193 kts | 52° |
| 2026-05-04 10:09 | 53.38009 | -2.21837 | 2121 ft | 215 kts | 50° |
| 2026-05-04 10:10 | 53.39197 | -2.20311 | 2938 ft | 226 kts | 17° |
| 2026-05-04 10:10 | 53.40729 | -2.20840 | 3624 ft | 243 kts | 314° |
| 2026-05-04 10:10 | 53.41346 | -2.23494 | 4450 ft | 255 kts | 272° |
| 2026-05-04 10:10 | 53.41304 | -2.26483 | 5377 ft | 267 kts | 271° |
| 2026-05-04 10:11 | 53.41771 | -2.29463 | 5245 ft | 265 kts | 300° |
| 2026-05-04 10:11 | 53.42864 | -2.31914 | 5196 ft | 262 kts | 314° |
| 2026-05-04 10:11 | 53.44150 | -2.34094 | 5570 ft | 265 kts | 313° |
| 2026-05-04 10:11 | 53.45274 | -2.36561 | 5944 ft | 268 kts | 304° |
| 2026-05-04 10:12 | 53.46234 | -2.39241 | 6326 ft | 269 kts | 298° |
| 2026-05-04 10:12 | 53.46813 | -2.42249 | 6705 ft | 272 kts | 279° |
| 2026-05-04 10:12 | 53.46812 | -2.45416 | 7080 ft | 275 kts | 262° |
| 2026-05-04 10:12 | 53.46448 | -2.48588 | 7458 ft | 277 kts | 260° |
| 2026-05-04 10:13 | 53.46084 | -2.51775 | 7835 ft | 279 kts | 261° |
| 2026-05-04 10:13 | 53.45728 | -2.54971 | 8202 ft | 280 kts | 261° |
| 2026-05-04 10:13 | 53.45372 | -2.58198 | 8586 ft | 282 kts | 261° |
| 2026-05-04 10:13 | 53.45015 | -2.61442 | 8964 ft | 283 kts | 261° |
| 2026-05-04 10:14 | 53.44656 | -2.64694 | 9340 ft | 285 kts | 260° |
| 2026-05-04 10:14 | 53.44294 | -2.67983 | 9717 ft | 286 kts | 260° |
| 2026-05-04 10:16 | 53.41348 | -2.94449 | 12366 ft | 357 kts | 260° |
| 2026-05-04 10:16 | 53.40886 | -2.98536 | 12744 ft | 359 kts | 260° |
| 2026-05-04 10:16 | 53.40420 | -3.02657 | 13121 ft | 360 kts | 260° |
| 2026-05-04 10:16 | 53.40005 | -3.06813 | 13496 ft | 362 kts | 265° |
| 2026-05-04 10:17 | 53.40029 | -3.11025 | 13872 ft | 364 kts | 277° |
| 2026-05-04 10:17 | 53.40581 | -3.15174 | 14249 ft | 367 kts | 289° |
| 2026-05-04 10:19 | 53.50667 | -3.40363 | 16886 ft | 380 kts | 305° |
| 2026-05-04 10:19 | 53.52200 | -3.43995 | 17258 ft | 382 kts | 305° |
| 2026-05-04 10:19 | 53.53741 | -3.47652 | 17627 ft | 385 kts | 305° |
| 2026-05-04 10:19 | 53.55289 | -3.51330 | 17998 ft | 387 kts | 305° |
| 2026-05-04 10:20 | 53.56843 | -3.55035 | 18384 ft | 389 kts | 305° |
| 2026-05-04 10:20 | 53.58406 | -3.58764 | 18761 ft | 391 kts | 305° |
| 2026-05-04 10:20 | 53.60000 | -3.62561 | 19143 ft | 393 kts | 305° |
| 2026-05-04 10:20 | 53.61499 | -3.66418 | 19524 ft | 395 kts | 299° |
| 2026-05-04 10:21 | 53.62644 | -3.70644 | 19899 ft | 398 kts | 292° |
| 2026-05-04 10:21 | 53.63669 | -3.74927 | 20266 ft | 401 kts | 292° |
| 2026-05-04 10:21 | 53.64724 | -3.79355 | 20647 ft | 403 kts | 292° |
| 2026-05-04 10:21 | 53.65771 | -3.83754 | 21026 ft | 406 kts | 293° |
| 2026-05-04 10:22 | 53.67828 | -3.92394 | 21756 ft | 410 kts | 293° |
| 2026-05-04 10:22 | 53.68894 | -3.96866 | 22135 ft | 412 kts | 293° |
| 2026-05-04 10:22 | 53.69963 | -4.01370 | 22509 ft | 415 kts | 293° |
| 2026-05-04 10:23 | 53.71004 | -4.05934 | 22880 ft | 419 kts | 290° |
| 2026-05-04 10:23 | 53.71687 | -4.10739 | 23257 ft | 424 kts | 281° |
| 2026-05-04 10:25 | 53.73068 | -4.46301 | 24078 ft | 438 kts | 275° |
| 2026-05-04 10:25 | 53.73252 | -4.51449 | 24081 ft | 438 kts | 275° |
| 2026-05-04 10:25 | 53.73435 | -4.56576 | 24082 ft | 438 kts | 275° |
| 2026-05-04 10:25 | 53.73616 | -4.61707 | 24082 ft | 438 kts | 275° |
| 2026-05-04 10:26 | 53.73793 | -4.66856 | 24079 ft | 438 kts | 275° |
| 2026-05-04 10:26 | 53.73964 | -4.71984 | 24079 ft | 438 kts | 275° |
| 2026-05-04 10:26 | 53.74130 | -4.77126 | 24088 ft | 438 kts | 275° |
| 2026-05-04 10:26 | 53.74296 | -4.82281 | 24084 ft | 438 kts | 275° |
| 2026-05-04 10:27 | 53.74462 | -4.87420 | 24078 ft | 438 kts | 275° |
| 2026-05-04 10:27 | 53.74628 | -4.92557 | 24081 ft | 438 kts | 275° |
| 2026-05-04 10:27 | 53.74794 | -4.97700 | 24079 ft | 439 kts | 275° |
| 2026-05-04 10:27 | 53.74958 | -5.02843 | 24091 ft | 438 kts | 275° |
| 2026-05-04 10:28 | 53.75122 | -5.07976 | 24098 ft | 437 kts | 275° |
| 2026-05-04 10:28 | 53.75041 | -5.13102 | 24100 ft | 438 kts | 265° |
| 2026-05-04 10:28 | 53.74458 | -5.18154 | 24099 ft | 440 kts | 256° |
| 2026-05-04 10:28 | 53.73484 | -5.23067 | 24097 ft | 440 kts | 252° |
| 2026-05-04 10:29 | 53.72483 | -5.27960 | 24097 ft | 440 kts | 252° |
| 2026-05-04 10:29 | 53.71487 | -5.32852 | 24089 ft | 441 kts | 252° |
| 2026-05-04 10:29 | 53.70495 | -5.37746 | 23680 ft | 440 kts | 252° |
| 2026-05-04 10:29 | 53.69499 | -5.42651 | 22503 ft | 440 kts | 252° |
| 2026-05-04 10:30 | 53.68525 | -5.47432 | 21399 ft | 431 kts | 252° |
| 2026-05-04 10:30 | 53.67700 | -5.52277 | 20296 ft | 422 kts | 259° |
| 2026-05-04 10:30 | 53.67079 | -5.57081 | 19193 ft | 415 kts | 259° |
| 2026-05-04 10:30 | 53.66467 | -5.61779 | 18089 ft | 407 kts | 259° |
| 2026-05-04 10:31 | 53.65860 | -5.66399 | 16965 ft | 399 kts | 258° |
| 2026-05-04 10:31 | 53.65261 | -5.70952 | 15884 ft | 400 kts | 258° |
| 2026-05-04 10:32 | 53.62255 | -5.97098 | 11201 ft | 365 kts | 261° |
| 2026-05-04 10:33 | 53.61803 | -6.01228 | 10835 ft | 362 kts | 261° |
| 2026-05-04 10:33 | 53.61333 | -6.05435 | 10455 ft | 360 kts | 260° |
| 2026-05-04 10:33 | 53.60866 | -6.09551 | 10083 ft | 356 kts | 260° |
| 2026-05-04 10:33 | 53.60403 | -6.13570 | 9702 ft | 342 kts | 260° |
| 2026-05-04 10:34 | 53.59956 | -6.17424 | 9330 ft | 329 kts | 260° |
| 2026-05-04 10:34 | 53.59525 | -6.21131 | 8956 ft | 318 kts | 260° |
| 2026-05-04 10:34 | 53.59112 | -6.24702 | 8573 ft | 300 kts | 260° |
| 2026-05-04 10:34 | 53.58729 | -6.28018 | 8196 ft | 282 kts | 260° |
| 2026-05-04 10:35 | 53.58357 | -6.31238 | 7821 ft | 278 kts | 260° |
| 2026-05-04 10:35 | 53.57991 | -6.34423 | 7450 ft | 276 kts | 260° |
| 2026-05-04 10:35 | 53.57630 | -6.37545 | 7076 ft | 275 kts | 260° |
| 2026-05-04 10:35 | 53.57263 | -6.40709 | 6708 ft | 274 kts | 260° |
| 2026-05-04 10:36 | 53.56899 | -6.43842 | 6524 ft | 273 kts | 260° |
| 2026-05-04 10:36 | 53.56534 | -6.46973 | 6284 ft | 272 kts | 260° |
| 2026-05-04 10:36 | 53.56167 | -6.50088 | 6034 ft | 271 kts | 259° |
| 2026-05-04 10:36 | 53.55798 | -6.53198 | 5784 ft | 270 kts | 259° |
| 2026-05-04 10:37 | 53.55360 | -6.56259 | 5534 ft | 270 kts | 249° |
| 2026-05-04 10:37 | 53.54462 | -6.59041 | 5286 ft | 271 kts | 239° |
| 2026-05-04 10:37 | 53.53470 | -6.61696 | 5034 ft | 264 kts | 238° |
| 2026-05-04 10:37 | 53.52500 | -6.64251 | 4786 ft | 256 kts | 239° |
| 2026-05-04 10:39 | 53.45585 | -6.63669 | 3250 ft | 220 kts | 92° |
| 2026-05-04 10:39 | 53.45456 | -6.61129 | 3016 ft | 213 kts | 91° |
| 2026-05-04 10:39 | 53.45340 | -6.58692 | 2976 ft | 207 kts | 90° |
| 2026-05-04 10:40 | 53.45218 | -6.56288 | 2978 ft | 206 kts | 91° |
| 2026-05-04 10:40 | 53.45093 | -6.53891 | 2993 ft | 206 kts | 91° |
| 2026-05-04 10:40 | 53.44969 | -6.51496 | 2906 ft | 206 kts | 91° |
| 2026-05-04 10:40 | 53.44843 | -6.49105 | 2685 ft | 205 kts | 92° |
| 2026-05-04 10:41 | 53.44718 | -6.46730 | 2428 ft | 204 kts | 92° |
| 2026-05-04 10:41 | 53.44593 | -6.44372 | 2152 ft | 202 kts | 92° |
| 2026-05-04 10:41 | 53.44470 | -6.42063 | 1897 ft | 197 kts | 93° |
| 2026-05-04 10:41 | 53.44350 | -6.39841 | 1639 ft | 179 kts | 93° |
| 2026-05-04 10:42 | 53.44245 | -6.37911 | 1420 ft | 156 kts | 94° |
| 2026-05-04 10:42 | 53.44155 | -6.36216 | 1220 ft | 137 kts | 94° |
| 2026-05-04 10:42 | 53.44071 | -6.34684 | 1062 ft | 128 kts | 92° |
| 2026-05-04 10:42 | 53.44003 | -6.33214 | 929 ft | 126 kts | 92° |
| 2026-05-04 10:43 | 53.43923 | -6.31767 | 710 ft | 125 kts | 94° |
| 2026-05-04 10:44 | 53.43406 | -6.24988 | 211 ft | 10 kts | 174° |
| 2026-05-04 10:45 | 53.43385 | -6.25030 | 211 ft | 5 kts | 251° |
| 2026-05-04 10:45 | 53.43382 | -6.25093 | 216 ft | 6 kts | 273° |
| 2026-05-04 10:45 | 53.43384 | -6.25161 | 211 ft | 6 kts | 272° |
| 2026-05-04 10:45 | 53.43386 | -6.25234 | 211 ft | 7 kts | 272° |
| 2026-05-04 10:46 | 53.43394 | -6.25326 | 212 ft | 10 kts | 278° |
| 2026-05-04 10:46 | 53.43403 | -6.25442 | 211 ft | 10 kts | 277° |
| 2026-05-04 10:46 | 53.43411 | -6.25565 | 211 ft | 11 kts | 272° |
| 2026-05-04 10:46 | 53.43367 | -6.25643 | 221 ft | 10 kts | 191° |
| 2026-05-04 10:47 | 53.43302 | -6.25611 | 213 ft | 10 kts | 157° |
| 2026-05-04 10:47 | 53.43236 | -6.25562 | 211 ft | 11 kts | 156° |
| 2026-05-04 10:47 | 53.43164 | -6.25510 | 214 ft | 12 kts | 155° |
| 2026-05-04 10:47 | 53.43088 | -6.25452 | 212 ft | 13 kts | 156° |
| 2026-05-04 10:49 | 53.42445 | -6.24922 | 211 ft | 18 kts | 156° |
| 2026-05-04 10:49 | 53.42362 | -6.24837 | 211 ft | 8 kts | 120° |
| 2026-05-04 10:50 | 53.42375 | -6.24753 | 211 ft | 8 kts | 50° |
| 2026-05-04 10:51 | 53.42331 | -6.24548 | 211 ft | 0 kts | 136° |